sensor_id;sensor_type;location;lat;lon;timestamp;pressure;altitude;pressure_sealevel;temperature;humidity
36354;BME280;22383;51.114;13.666;2023-12-14T00:02:21;67627.25;;;3.96;100.00
36354;BME280;22383;51.114;13.666;2023-12-14T00:04:48;67630.22;;;3.94;100.00
36354;BME280;22383;51.114;13.666;2023-12-14T00:07:15;67625.91;;;3.92;100.00
36354;BME280;22383;51.114;13.666;2023-12-14T00:09:43;67618.78;;;3.88;100.00
36354;BME280;22383;51.114;13.666;2023-12-14T00:12:10;67620.63;;;3.85;100.00
36354;BME280;22383;51.114;13.666;2023-12-14T00:14:37;67611.09;;;3.84;100.00
36354;BME280;22383;51.114;13.666;2023-12-14T00:17:05;67609.75;;;3.80;100.00
36354;BME280;22383;51.114;13.666;2023-12-14T00:19:32;67609.00;;;3.77;100.00
36354;BME280;22383;51.114;13.666;2023-12-14T00:21:59;67612.38;;;3.80;100.00
36354;BME280;22383;51.114;13.666;2023-12-14T00:24:26;67606.75;;;3.75;100.00
36354;BME280;22383;51.114;13.666;2023-12-14T00:26:53;67604.50;;;3.73;100.00
36354;BME280;22383;51.114;13.666;2023-12-14T00:29:20;67605.03;;;3.73;100.00
36354;BME280;22383;51.114;13.666;2023-12-14T00:31:47;67602.44;;;3.73;100.00
36354;BME280;22383;51.114;13.666;2023-12-14T00:34:15;67606.75;;;3.75;100.00
36354;BME280;22383;51.114;13.666;2023-12-14T00:36:42;67606.94;;;3.77;100.00
36354;BME280;22383;51.114;13.666;2023-12-14T00:39:09;67609.41;;;3.82;100.00
36354;BME280;22383;51.114;13.666;2023-12-14T00:41:37;67617.47;;;3.85;100.00
36354;BME280;22383;51.114;13.666;2023-12-14T00:44:04;67615.97;;;3.86;100.00
36354;BME280;22383;51.114;13.666;2023-12-14T00:46:31;67618.22;;;3.88;100.00
36354;BME280;22383;51.114;13.666;2023-12-14T00:48:58;67618.44;;;3.90;100.00
36354;BME280;22383;51.114;13.666;2023-12-14T00:51:25;67618.78;;;3.88;100.00
36354;BME280;22383;51.114;13.666;2023-12-14T00:53:52;67631.00;;;3.97;100.00
36354;BME280;22383;51.114;13.666;2023-12-14T00:56:19;67629.16;;;4.00;100.00
36354;BME280;22383;51.114;13.666;2023-12-14T00:58:48;67636.81;;;4.05;100.00
36354;BME280;22383;51.114;13.666;2023-12-14T01:01:15;67640.59;;;4.06;100.00
36354;BME280;22383;51.114;13.666;2023-12-14T01:03:42;67633.47;;;4.02;100.00
36354;BME280;22383;51.114;13.666;2023-12-14T01:06:09;67636.06;;;4.02;100.00
36354;BME280;22383;51.114;13.666;2023-12-14T01:08:36;67631.97;;;4.03;100.00
36354;BME280;22383;51.114;13.666;2023-12-14T01:11:03;67653.19;;;4.20;100.00
36354;BME280;22383;51.114;13.666;2023-12-14T01:13:30;67659.75;;;4.23;100.00
36354;BME280;22383;51.114;13.666;2023-12-14T01:15:58;67644.16;;;4.11;100.00
36354;BME280;22383;51.114;13.666;2023-12-14T01:18:25;67668.22;;;4.31;100.00
36354;BME280;22383;51.114;13.666;2023-12-14T01:20:52;67650.00;;;4.19;100.00
36354;BME280;22383;51.114;13.666;2023-12-14T01:23:19;67648.09;;;4.15;100.00
36354;BME280;22383;51.114;13.666;2023-12-14T01:25:46;67643.03;;;4.10;100.00
36354;BME280;22383;51.114;13.666;2023-12-14T01:28:14;67661.09;;;4.27;100.00
36354;BME280;22383;51.114;13.666;2023-12-14T01:30:41;67653.97;;;4.23;100.00
36354;BME280;22383;51.114;13.666;2023-12-14T01:33:08;67652.97;;;4.17;100.00
36354;BME280;22383;51.114;13.666;2023-12-14T01:35:35;67648.69;;;4.15;100.00
36354;BME280;22383;51.114;13.666;2023-12-14T01:38:02;67657.31;;;4.26;100.00
36354;BME280;22383;51.114;13.666;2023-12-14T01:40:30;67654.13;;;4.18;100.00
36354;BME280;22383;51.114;13.666;2023-12-14T01:43:07;67641.34;;;4.09;100.00
36354;BME280;22383;51.114;13.666;2023-12-14T01:45:35;67636.81;;;4.05;100.00
36354;BME280;22383;51.114;13.666;2023-12-14T01:48:06;67627.03;;;3.93;100.00
36354;BME280;22383;51.114;13.666;2023-12-14T01:50:33;67619.16;;;3.86;100.00
36354;BME280;22383;51.114;13.666;2023-12-14T01:53:00;67608.47;;;3.84;100.00
36354;BME280;22383;51.114;13.666;2023-12-14T01:55:28;67608.06;;;3.78;100.00
36354;BME280;22383;51.114;13.666;2023-12-14T01:57:55;67608.06;;;3.78;100.00
36354;BME280;22383;51.114;13.666;2023-12-14T02:00:36;67608.44;;;3.76;100.00
36354;BME280;22383;51.114;13.666;2023-12-14T02:03:03;67616.16;;;3.88;100.00
36354;BME280;22383;51.114;13.666;2023-12-14T02:05:31;67613.16;;;3.83;100.00
36354;BME280;22383;51.114;13.666;2023-12-14T02:07:58;67619.16;;;3.86;100.00
36354;BME280;22383;51.114;13.666;2023-12-14T02:10:26;67619.72;;;3.87;100.00
36354;BME280;22383;51.114;13.666;2023-12-14T02:12:53;67618.78;;;3.88;100.00
36354;BME280;22383;51.114;13.666;2023-12-14T02:15:20;67623.66;;;3.90;100.00
36354;BME280;22383;51.114;13.666;2023-12-14T02:17:48;67622.19;;;3.91;100.00
36354;BME280;22383;51.114;13.666;2023-12-14T02:20:15;67626.28;;;3.90;100.00
36354;BME280;22383;51.114;13.666;2023-12-14T02:22:55;67618.22;;;3.88;100.00
36354;BME280;22383;51.114;13.666;2023-12-14T02:25:23;67620.28;;;3.87;100.00
36354;BME280;22383;51.114;13.666;2023-12-14T02:27:51;67609.97;;;3.83;100.00
36354;BME280;22383;51.114;13.666;2023-12-14T02:30:18;67608.06;;;3.78;100.00
36354;BME280;22383;51.114;13.666;2023-12-14T02:32:45;67607.50;;;3.78;100.00
36354;BME280;22383;51.114;13.666;2023-12-14T02:35:13;67611.81;;;3.79;100.00
36354;BME280;22383;51.114;13.666;2023-12-14T02:37:40;67605.25;;;3.76;100.00
36354;BME280;22383;51.114;13.666;2023-12-14T02:40:08;67612.97;;;3.81;100.00
36354;BME280;22383;51.114;13.666;2023-12-14T02:42:35;67614.84;;;3.85;100.00
36354;BME280;22383;51.114;13.666;2023-12-14T02:45:03;67617.09;;;3.87;100.00
36354;BME280;22383;51.114;13.666;2023-12-14T02:47:30;67615.41;;;3.85;100.00
36354;BME280;22383;51.114;13.666;2023-12-14T02:49:58;67612.78;;;3.85;100.00
36354;BME280;22383;51.114;13.666;2023-12-14T02:52:25;67614.28;;;3.84;100.00
36354;BME280;22383;51.114;13.666;2023-12-14T02:54:52;67618.59;;;3.86;100.00
36354;BME280;22383;51.114;13.666;2023-12-14T02:57:19;67620.47;;;3.90;100.00
36354;BME280;22383;51.114;13.666;2023-12-14T02:59:46;67625.56;;;3.94;100.00
36354;BME280;22383;51.114;13.666;2023-12-14T03:02:13;67630.06;;;3.98;100.00
36354;BME280;22383;51.114;13.666;2023-12-14T03:04:40;67623.50;;;3.95;100.00
36354;BME280;22383;51.114;13.666;2023-12-14T03:07:08;67626.69;;;3.95;100.00
36354;BME280;22383;51.114;13.666;2023-12-14T03:09:35;67625.19;;;3.96;100.00
36354;BME280;22383;51.114;13.666;2023-12-14T03:12:02;67635.50;;;4.01;100.00
36354;BME280;22383;51.114;13.666;2023-12-14T03:14:32;67629.72;;;4.01;100.00
36354;BME280;22383;51.114;13.666;2023-12-14T03:17:00;67638.88;;;4.04;100.00
36354;BME280;22383;51.114;13.666;2023-12-14T03:19:28;67637.41;;;4.05;100.00
36354;BME280;22383;51.114;13.666;2023-12-14T03:21:55;67633.66;;;4.04;100.00
36354;BME280;22383;51.114;13.666;2023-12-14T03:24:22;67637.75;;;4.03;100.00
36354;BME280;22383;51.114;13.666;2023-12-14T03:26:49;67633.09;;;4.04;100.00
36354;BME280;22383;51.114;13.666;2023-12-14T03:29:18;67636.28;;;4.04;100.00
36354;BME280;22383;51.114;13.666;2023-12-14T03:31:45;67635.13;;;4.03;100.00
36354;BME280;22383;51.114;13.666;2023-12-14T03:34:12;67639.66;;;4.07;100.00
36354;BME280;22383;51.114;13.666;2023-12-14T03:36:39;67635.72;;;4.04;100.00
36354;BME280;22383;51.114;13.666;2023-12-14T03:39:07;67635.13;;;4.03;100.00
36354;BME280;22383;51.114;13.666;2023-12-14T03:41:34;67637.19;;;4.03;100.00
36354;BME280;22383;51.114;13.666;2023-12-14T03:44:01;67632.50;;;4.03;100.00
36354;BME280;22383;51.114;13.666;2023-12-14T03:46:28;67634.78;;;4.05;100.00
36354;BME280;22383;51.114;13.666;2023-12-14T03:48:55;67636.28;;;4.04;100.00
36354;BME280;22383;51.114;13.666;2023-12-14T03:51:23;67633.66;;;4.04;100.00
36354;BME280;22383;51.114;13.666;2023-12-14T03:53:50;67637.19;;;4.03;100.00
36354;BME280;22383;51.114;13.666;2023-12-14T03:56:17;67638.88;;;4.04;100.00
36354;BME280;22383;51.114;13.666;2023-12-14T03:58:44;67629.72;;;4.01;100.00
36354;BME280;22383;51.114;13.666;2023-12-14T04:01:16;67628.56;;;4.00;100.00
36354;BME280;22383;51.114;13.666;2023-12-14T04:03:44;67628.19;;;3.94;100.00
36354;BME280;22383;51.114;13.666;2023-12-14T04:06:13;67626.13;;;3.95;100.00
36354;BME280;22383;51.114;13.666;2023-12-14T04:08:41;67623.88;;;3.93;100.00
36354;BME280;22383;51.114;13.666;2023-12-14T04:11:09;67621.03;;;3.90;100.00
36354;BME280;22383;51.114;13.666;2023-12-14T04:13:37;67619.94;;;3.89;100.00
36354;BME280;22383;51.114;13.666;2023-12-14T04:16:05;67622.34;;;3.87;100.00
36354;BME280;22383;51.114;13.666;2023-12-14T04:18:32;67613.91;;;3.86;100.00
36354;BME280;22383;51.114;13.666;2023-12-14T04:20:59;67614.06;;;3.82;100.00
36354;BME280;22383;51.114;13.666;2023-12-14T04:23:27;67611.09;;;3.84;100.00
36354;BME280;22383;51.114;13.666;2023-12-14T04:25:54;67613.16;;;3.83;100.00
36354;BME280;22383;51.114;13.666;2023-12-14T04:28:21;67612.97;;;3.81;100.00
36354;BME280;22383;51.114;13.666;2023-12-14T04:30:48;67610.34;;;3.81;100.00
36354;BME280;22383;51.114;13.666;2023-12-14T04:33:16;67613.72;;;3.84;100.00
36354;BME280;22383;51.114;13.666;2023-12-14T04:35:43;67610.53;;;3.83;100.00
36354;BME280;22383;51.114;13.666;2023-12-14T04:38:10;67615.22;;;3.83;100.00
36354;BME280;22383;51.114;13.666;2023-12-14T04:40:37;67615.22;;;3.83;100.00
36354;BME280;22383;51.114;13.666;2023-12-14T04:43:07;67604.91;;;3.78;100.00
36354;BME280;22383;51.114;13.666;2023-12-14T04:45:35;67586.22;;;3.80;100.00
36354;BME280;22383;51.114;13.666;2023-12-14T04:48:02;67607.16;;;3.80;100.00
36354;BME280;22383;51.114;13.666;2023-12-14T04:50:29;67609.22;;;3.79;100.00
36354;BME280;22383;51.114;13.666;2023-12-14T04:52:56;67608.66;;;3.79;100.00
36354;BME280;22383;51.114;13.666;2023-12-14T04:55:23;67606.41;;;3.77;100.00
36354;BME280;22383;51.114;13.666;2023-12-14T04:57:51;67605.44;;;3.78;100.00
36354;BME280;22383;51.114;13.666;2023-12-14T05:00:18;67611.25;;;3.79;100.00
36354;BME280;22383;51.114;13.666;2023-12-14T05:02:46;67613.88;;;3.79;100.00
36354;BME280;22383;51.114;13.666;2023-12-14T05:05:14;67586.78;;;3.81;100.00
36354;BME280;22383;51.114;13.666;2023-12-14T05:07:42;67608.66;;;3.79;100.00
36354;BME280;22383;51.114;13.666;2023-12-14T05:10:09;67610.34;;;3.81;100.00
36354;BME280;22383;51.114;13.666;2023-12-14T05:12:37;67608.66;;;3.79;100.00
36354;BME280;22383;51.114;13.666;2023-12-14T05:15:05;67606.59;;;3.79;100.00
36354;BME280;22383;51.114;13.666;2023-12-14T05:17:32;67607.72;;;3.81;100.00
36354;BME280;22383;51.114;13.666;2023-12-14T05:20:01;67612.38;;;3.80;100.00
36354;BME280;22383;51.114;13.666;2023-12-14T05:22:28;67612.97;;;3.81;100.00
36354;BME280;22383;51.114;13.666;2023-12-14T05:24:55;67605.44;;;3.78;100.00
36354;BME280;22383;51.114;13.666;2023-12-14T05:27:23;67609.75;;;3.80;100.00
36354;BME280;22383;51.114;13.666;2023-12-14T05:29:50;67609.22;;;3.79;100.00
36354;BME280;22383;51.114;13.666;2023-12-14T05:32:17;67610.34;;;3.81;100.00
36354;BME280;22383;51.114;13.666;2023-12-14T05:34:44;67606.03;;;3.79;100.00
36354;BME280;22383;51.114;13.666;2023-12-14T05:37:11;67609.75;;;3.80;100.00
36354;BME280;22383;51.114;13.666;2023-12-14T05:39:41;67609.75;;;3.80;100.00
36354;BME280;22383;51.114;13.666;2023-12-14T05:42:08;67610.34;;;3.81;100.00
36354;BME280;22383;51.114;13.666;2023-12-14T05:44:36;67610.34;;;3.81;100.00
36354;BME280;22383;51.114;13.666;2023-12-14T05:47:03;67610.34;;;3.81;100.00
36354;BME280;22383;51.114;13.666;2023-12-14T05:49:31;67607.72;;;3.81;100.00
36354;BME280;22383;51.114;13.666;2023-12-14T05:51:59;67605.81;;;3.76;100.00
36354;BME280;22383;51.114;13.666;2023-12-14T05:54:26;67612.38;;;3.80;100.00
36354;BME280;22383;51.114;13.666;2023-12-14T05:56:54;67605.09;;;3.81;100.00
36354;BME280;22383;51.114;13.666;2023-12-14T05:59:21;67608.66;;;3.79;100.00
36354;BME280;22383;51.114;13.666;2023-12-14T06:01:48;67604.53;;;3.80;100.00
36354;BME280;22383;51.114;13.666;2023-12-14T06:04:15;67608.28;;;3.81;100.00
36354;BME280;22383;51.114;13.666;2023-12-14T06:06:42;67605.25;;;3.76;100.00
36354;BME280;22383;51.114;13.666;2023-12-14T06:09:09;67601.50;;;3.75;100.00
36354;BME280;22383;51.114;13.666;2023-12-14T06:11:37;67596.44;;;3.70;100.00
36354;BME280;22383;51.114;13.666;2023-12-14T06:14:04;67599.06;;;3.70;100.00
36354;BME280;22383;51.114;13.666;2023-12-14T06:16:31;67597.72;;;3.67;100.00
36354;BME280;22383;51.114;13.666;2023-12-14T06:18:58;67592.88;;;3.65;100.00
36354;BME280;22383;51.114;13.666;2023-12-14T06:21:25;67585.94;;;3.63;100.00
36354;BME280;22383;51.114;13.666;2023-12-14T06:23:56;67590.97;;;3.60;100.00
36354;BME280;22383;51.114;13.666;2023-12-14T06:26:24;67587.22;;;3.59;100.00
36354;BME280;22383;51.114;13.666;2023-12-14T06:28:51;67582.34;;;3.57;100.00
36354;BME280;22383;51.114;13.666;2023-12-14T06:31:18;67586.09;;;3.58;100.00
36354;BME280;22383;51.114;13.666;2023-12-14T06:33:48;67584.75;;;3.55;100.00
36354;BME280;22383;51.114;13.666;2023-12-14T06:36:16;67581.00;;;3.54;100.00
36354;BME280;22383;51.114;13.666;2023-12-14T06:38:46;67582.50;;;3.53;100.00
36354;BME280;22383;51.114;13.666;2023-12-14T06:41:23;67579.31;;;3.52;100.00
36354;BME280;22383;51.114;13.666;2023-12-14T06:43:51;67578.19;;;3.51;100.00
36354;BME280;22383;51.114;13.666;2023-12-14T06:46:19;67570.16;;;3.49;100.00
36354;BME280;22383;51.114;13.666;2023-12-14T06:48:46;67581.75;;;3.50;100.00
36354;BME280;22383;51.114;13.666;2023-12-14T06:51:14;67575.94;;;3.49;100.00
36354;BME280;22383;51.114;13.666;2023-12-14T06:53:42;67573.13;;;3.47;100.00
36354;BME280;22383;51.114;13.666;2023-12-14T06:56:10;67572.72;;;3.41;100.00
36354;BME280;22383;51.114;13.666;2023-12-14T06:58:39;67571.03;;;3.40;100.00
36354;BME280;22383;51.114;13.666;2023-12-14T07:01:10;67561.84;;;3.36;100.00
36354;BME280;22383;51.114;13.666;2023-12-14T07:03:40;67559.97;;;3.32;100.00
36354;BME280;22383;51.114;13.666;2023-12-14T07:06:11;67550.78;;;3.29;100.00
36354;BME280;22383;51.114;13.666;2023-12-14T07:08:40;67554.53;;;3.30;100.00
36354;BME280;22383;51.114;13.666;2023-12-14T07:11:08;67551.72;;;3.27;100.00
36354;BME280;22383;51.114;13.666;2023-12-14T07:13:35;67553.22;;;3.26;100.00
36354;BME280;22383;51.114;13.666;2023-12-14T07:16:07;67549.47;;;3.25;100.00
36354;BME280;22383;51.114;13.666;2023-12-14T07:18:36;67550.59;;;3.26;100.00
36354;BME280;22383;51.114;13.666;2023-12-14T07:21:04;67549.09;;;3.27;100.00
36354;BME280;22383;51.114;13.666;2023-12-14T07:23:32;67555.47;;;3.28;100.00
36354;BME280;22383;51.114;13.666;2023-12-14T07:25:59;67550.78;;;3.29;100.00
36354;BME280;22383;51.114;13.666;2023-12-14T07:28:30;67561.25;;;3.29;100.00
36354;BME280;22383;51.114;13.666;2023-12-14T07:30:57;67555.09;;;3.30;100.00
36354;BME280;22383;51.114;13.666;2023-12-14T07:33:24;67547.63;;;3.28;100.00
36354;BME280;22383;51.114;13.666;2023-12-14T07:35:51;67551.72;;;3.27;100.00
36354;BME280;22383;51.114;13.666;2023-12-14T07:38:18;67550.22;;;3.28;100.00
36354;BME280;22383;51.114;13.666;2023-12-14T07:40:46;67555.47;;;3.28;100.00
36354;BME280;22383;51.114;13.666;2023-12-14T07:43:13;67553.41;;;3.29;100.00
36354;BME280;22383;51.114;13.666;2023-12-14T07:45:41;67549.66;;;3.28;100.00
36354;BME280;22383;51.114;13.666;2023-12-14T07:48:08;67549.47;;;3.25;100.00
36354;BME280;22383;51.114;13.666;2023-12-14T07:50:36;67548.31;;;3.24;100.00
36354;BME280;22383;51.114;13.666;2023-12-14T07:53:03;67547.22;;;3.23;100.00
36354;BME280;22383;51.114;13.666;2023-12-14T07:55:31;67548.91;;;3.25;100.00
36354;BME280;22383;51.114;13.666;2023-12-14T07:57:58;67546.63;;;3.22;100.00
36354;BME280;22383;51.114;13.666;2023-12-14T08:00:25;67545.72;;;3.24;100.00
36354;BME280;22383;51.114;13.666;2023-12-14T08:02:52;67548.13;;;3.21;100.00
36354;BME280;22383;51.114;13.666;2023-12-14T08:05:20;67546.44;;;3.20;100.00
36354;BME280;22383;51.114;13.666;2023-12-14T08:07:47;67547.91;;;3.19;100.00
36354;BME280;22383;51.114;13.666;2023-12-14T08:10:15;67537.81;;;3.17;100.00
36354;BME280;22383;51.114;13.666;2023-12-14T08:12:42;67542.91;;;3.21;100.00
36354;BME280;22383;51.114;13.666;2023-12-14T08:15:09;67543.97;;;3.15;100.00
36354;BME280;22383;51.114;13.666;2023-12-14T08:17:36;67534.81;;;3.12;100.00
36354;BME280;22383;51.114;13.666;2023-12-14T08:20:04;67538.00;;;3.12;100.00
36354;BME280;22383;51.114;13.666;2023-12-14T08:22:35;67530.84;;;3.08;100.00
36354;BME280;22383;51.114;13.666;2023-12-14T08:25:03;67535.72;;;3.10;100.00
36354;BME280;22383;51.114;13.666;2023-12-14T08:27:31;67533.84;;;3.06;100.00
36354;BME280;22383;51.114;13.666;2023-12-14T08:29:58;67528.06;;;3.06;100.00
36354;BME280;22383;51.114;13.666;2023-12-14T08:32:25;67522.06;;;3.02;100.00
36354;BME280;22383;51.114;13.666;2023-12-14T08:34:52;67521.09;;;2.97;100.00
36354;BME280;22383;51.114;13.666;2023-12-14T08:37:20;67515.50;;;2.99;100.00
36354;BME280;22383;51.114;13.666;2023-12-14T08:39:47;67525.38;;;2.98;100.00
36354;BME280;22383;51.114;13.666;2023-12-14T08:42:14;67521.28;;;2.99;100.00
36354;BME280;22383;51.114;13.666;2023-12-14T08:44:41;67528.19;;;3.01;100.00
36354;BME280;22383;51.114;13.666;2023-12-14T08:47:08;67523.34;;;2.99;100.00
36354;BME280;22383;51.114;13.666;2023-12-14T08:49:36;67513.94;;;2.93;100.00
36354;BME280;22383;51.114;13.666;2023-12-14T08:52:04;67511.69;;;2.91;100.00
36354;BME280;22383;51.114;13.666;2023-12-14T08:54:31;67510.59;;;2.90;100.00
36354;BME280;22383;51.114;13.666;2023-12-14T08:56:58;67508.13;;;2.85;100.00
36354;BME280;22383;51.114;13.666;2023-12-14T08:59:27;67506.06;;;2.86;100.00
36354;BME280;22383;51.114;13.666;2023-12-14T09:01:55;67506.78;;;2.81;100.00
36354;BME280;22383;51.114;13.666;2023-12-14T09:04:22;67499.88;;;2.80;100.00
36354;BME280;22383;51.114;13.666;2023-12-14T09:06:49;67501.56;;;2.81;100.00
36354;BME280;22383;51.114;13.666;2023-12-14T09:09:16;67496.72;;;2.79;100.00
36354;BME280;22383;51.114;13.666;2023-12-14T09:11:45;67500.25;;;2.78;100.00
36354;BME280;22383;51.114;13.666;2023-12-14T09:14:12;67496.16;;;2.79;100.00
36354;BME280;22383;51.114;13.666;2023-12-14T09:16:40;67496.72;;;2.79;100.00
36354;BME280;22383;51.114;13.666;2023-12-14T09:19:07;67501.00;;;2.81;100.00
36354;BME280;22383;51.114;13.666;2023-12-14T09:21:34;67503.03;;;2.80;100.00
36354;BME280;22383;51.114;13.666;2023-12-14T09:24:12;67494.66;;;2.80;100.00
36354;BME280;22383;51.114;13.666;2023-12-14T09:26:40;67495.94;;;2.76;100.00
36354;BME280;22383;51.114;13.666;2023-12-14T09:29:08;67489.38;;;2.73;100.00
36354;BME280;22383;51.114;13.666;2023-12-14T09:31:35;67485.81;;;2.67;100.00
36354;BME280;22383;51.114;13.666;2023-12-14T09:34:03;67481.31;;;2.63;100.00
36354;BME280;22383;51.114;13.666;2023-12-14T09:36:31;67484.47;;;2.63;100.00
36354;BME280;22383;51.114;13.666;2023-12-14T09:38:58;67487.09;;;2.63;100.00
36354;BME280;22383;51.114;13.666;2023-12-14T09:41:25;67481.31;;;2.63;100.00
36354;BME280;22383;51.114;13.666;2023-12-14T09:43:53;67482.97;;;2.64;100.00
36354;BME280;22383;51.114;13.666;2023-12-14T09:46:20;67489.53;;;2.68;100.00
36354;BME280;22383;51.114;13.666;2023-12-14T09:48:52;67480.56;;;2.67;100.00
36354;BME280;22383;51.114;13.666;2023-12-14T09:51:20;67486.91;;;2.68;100.00
36354;BME280;22383;51.114;13.666;2023-12-14T09:53:47;67486.53;;;2.63;100.00
36354;BME280;22383;51.114;13.666;2023-12-14T09:56:14;67484.09;;;2.65;100.00
36354;BME280;22383;51.114;13.666;2023-12-14T09:58:41;67489.19;;;2.70;100.00
36354;BME280;22383;51.114;13.666;2023-12-14T10:01:25;67492.34;;;2.71;100.00
36354;BME280;22383;51.114;13.666;2023-12-14T10:04:09;67486.34;;;2.68;100.00
36354;BME280;22383;51.114;13.666;2023-12-14T10:06:42;67489.38;;;2.73;100.00
36354;BME280;22383;51.114;13.666;2023-12-14T10:09:09;67494.59;;;2.73;100.00
36354;BME280;22383;51.114;13.666;2023-12-14T10:11:41;67484.88;;;2.69;100.00
36354;BME280;22383;51.114;13.666;2023-12-14T10:14:23;67481.69;;;2.68;100.00
36354;BME280;22383;51.114;13.666;2023-12-14T10:16:52;67476.41;;;2.61;100.00
36354;BME280;22383;51.114;13.666;2023-12-14T10:19:29;67482.22;;;2.61;100.00
36354;BME280;22383;51.114;13.666;2023-12-14T10:21:56;67476.00;;;2.56;100.00
36354;BME280;22383;51.114;13.666;2023-12-14T10:24:23;67473.97;;;2.56;100.00
36354;BME280;22383;51.114;13.666;2023-12-14T10:26:51;67471.91;;;2.57;100.00
36354;BME280;22383;51.114;13.666;2023-12-14T10:29:19;67471.91;;;2.57;100.00
36354;BME280;22383;51.114;13.666;2023-12-14T10:31:48;67473.63;;;2.58;100.00
36354;BME280;22383;51.114;13.666;2023-12-14T10:34:15;67477.69;;;2.57;100.00
36354;BME280;22383;51.114;13.666;2023-12-14T10:36:45;67473.00;;;2.51;100.00
36354;BME280;22383;51.114;13.666;2023-12-14T10:39:14;67467.75;;;2.51;100.00
36354;BME280;22383;51.114;13.666;2023-12-14T10:41:49;67465.88;;;2.46;100.00
36354;BME280;22383;51.114;13.666;2023-12-14T10:44:27;67460.47;;;2.44;100.00
36354;BME280;22383;51.114;13.666;2023-12-14T10:47:15;67450.13;;;2.32;100.00
36354;BME280;22383;51.114;13.666;2023-12-14T10:49:47;67455.75;;;2.37;100.00
36354;BME280;22383;51.114;13.666;2023-12-14T10:52:18;67455.94;;;2.40;100.00
36354;BME280;22383;51.114;13.666;2023-12-14T10:54:46;67454.81;;;2.39;100.00
36354;BME280;22383;51.114;13.666;2023-12-14T10:57:16;67446.59;;;2.34;100.00
36354;BME280;22383;51.114;13.666;2023-12-14T10:59:43;67455.19;;;2.37;100.00
36354;BME280;22383;51.114;13.666;2023-12-14T11:02:11;67454.81;;;2.39;100.00
36354;BME280;22383;51.114;13.666;2023-12-14T11:04:57;67448.06;;;2.33;100.00
36354;BME280;22383;51.114;13.666;2023-12-14T11:07:45;67448.63;;;2.33;100.00
36354;BME280;22383;51.114;13.666;2023-12-14T11:10:13;67444.69;;;2.30;100.00
36354;BME280;22383;51.114;13.666;2023-12-14T11:13:03;67443.34;;;2.26;100.00
36354;BME280;22383;51.114;13.666;2023-12-14T11:15:33;67434.19;;;2.22;100.00
36354;BME280;22383;51.114;13.666;2023-12-14T11:23:13;67437.94;;;2.23;100.00
36354;BME280;22383;51.114;13.666;2023-12-14T11:25:41;67440.75;;;2.26;100.00
36354;BME280;22383;51.114;13.666;2023-12-14T11:28:13;67448.41;;;2.31;100.00
36354;BME280;22383;51.114;13.666;2023-12-14T11:30:43;67449.75;;;2.34;100.00
36354;BME280;22383;51.114;13.666;2023-12-14T11:33:21;67448.06;;;2.33;100.00
36354;BME280;22383;51.114;13.666;2023-12-14T11:35:51;67452.22;;;2.39;100.00
36354;BME280;22383;51.114;13.666;2023-12-14T11:38:19;67449.75;;;2.34;100.00
36354;BME280;22383;51.114;13.666;2023-12-14T11:40:49;67450.88;;;2.35;100.00
36354;BME280;22383;51.114;13.666;2023-12-14T11:43:17;67452.72;;;2.32;100.00
36354;BME280;22383;51.114;13.666;2023-12-14T11:45:48;67444.13;;;2.29;100.00
36354;BME280;22383;51.114;13.666;2023-12-14T11:48:15;67435.88;;;2.24;100.00
36354;BME280;22383;51.114;13.666;2023-12-14T11:50:44;67440.75;;;2.26;100.00
36354;BME280;22383;51.114;13.666;2023-12-14T11:53:11;67442.59;;;2.23;100.00
36354;BME280;22383;51.114;13.666;2023-12-14T11:55:40;67442.78;;;2.25;100.00
36354;BME280;22383;51.114;13.666;2023-12-14T11:58:09;67441.09;;;2.24;100.00
36354;BME280;22383;51.114;13.666;2023-12-14T12:00:38;67430.59;;;2.17;100.00
36354;BME280;22383;51.114;13.666;2023-12-14T12:03:14;67426.13;;;2.13;100.00
36354;BME280;22383;51.114;13.666;2023-12-14T12:05:50;67421.59;;;2.08;100.00
36354;BME280;22383;51.114;13.666;2023-12-14T12:08:20;67423.88;;;2.11;100.00
36354;BME280;22383;51.114;13.666;2023-12-14T12:10:48;67422.00;;;2.14;100.00
36354;BME280;22383;51.114;13.666;2023-12-14T12:13:19;67430.06;;;2.16;100.00
36354;BME280;22383;51.114;13.666;2023-12-14T12:15:48;67428.34;;;2.15;100.00
36354;BME280;22383;51.114;13.666;2023-12-14T12:18:16;67434.19;;;2.22;100.00
36354;BME280;22383;51.114;13.666;2023-12-14T12:20:44;67433.44;;;2.19;100.00
36354;BME280;22383;51.114;13.666;2023-12-14T12:23:12;67427.81;;;2.14;100.00
36354;BME280;22383;51.114;13.666;2023-12-14T12:25:39;67424.78;;;2.09;100.00
36354;BME280;22383;51.114;13.666;2023-12-14T12:28:06;67426.13;;;2.13;100.00
36354;BME280;22383;51.114;13.666;2023-12-14T12:30:34;67426.47;;;2.11;100.00
36354;BME280;22383;51.114;13.666;2023-12-14T12:33:06;67423.28;;;2.10;100.00
36354;BME280;22383;51.114;13.666;2023-12-14T12:35:33;67428.16;;;2.12;100.00
36354;BME280;22383;51.114;13.666;2023-12-14T12:38:01;67422.72;;;2.10;100.00
36354;BME280;22383;51.114;13.666;2023-12-14T12:40:29;67418.97;;;2.08;100.00
36354;BME280;22383;51.114;13.666;2023-12-14T12:43:00;67417.31;;;2.07;100.00
36354;BME280;22383;51.114;13.666;2023-12-14T12:45:28;67423.28;;;2.10;100.00
36354;BME280;22383;51.114;13.666;2023-12-14T12:47:56;67422.16;;;2.09;100.00
36354;BME280;22383;51.114;13.666;2023-12-14T12:50:24;67415.03;;;2.05;100.00
36354;BME280;22383;51.114;13.666;2023-12-14T12:52:51;67410.00;;;2.00;100.00
36354;BME280;22383;51.114;13.666;2023-12-14T12:55:18;67410.69;;;1.96;100.00
36354;BME280;22383;51.114;13.666;2023-12-14T12:57:46;67407.75;;;1.98;100.00
36354;BME280;22383;51.114;13.666;2023-12-14T13:00:14;67409.56;;;1.95;100.00
36354;BME280;22383;51.114;13.666;2023-12-14T13:02:43;67408.09;;;1.96;100.00